sensor_id;sensor_type;location;lat;lon;timestamp;P1;durP1;ratioP1;P2;durP2;ratioP2
3843;SDS011;1937;51.444;6.484;2024-03-08T00:00:04;30.37;;;16.43;;
3843;SDS011;1937;51.444;6.484;2024-03-08T00:02:35;27.87;;;14.90;;
3843;SDS011;1937;51.444;6.484;2024-03-08T00:05:02;28.90;;;15.83;;
3843;SDS011;1937;51.444;6.484;2024-03-08T00:07:29;27.37;;;14.63;;
3843;SDS011;1937;51.444;6.484;2024-03-08T00:09:55;30.67;;;15.67;;
3843;SDS011;1937;51.444;6.484;2024-03-08T00:12:24;29.57;;;16.13;;
3843;SDS011;1937;51.444;6.484;2024-03-08T00:14:52;27.87;;;16.10;;
3843;SDS011;1937;51.444;6.484;2024-03-08T00:17:19;32.17;;;17.97;;
3843;SDS011;1937;51.444;6.484;2024-03-08T00:19:48;30.70;;;16.43;;
3843;SDS011;1937;51.444;6.484;2024-03-08T00:22:15;36.87;;;17.70;;
3843;SDS011;1937;51.444;6.484;2024-03-08T00:24:42;32.17;;;15.93;;
3843;SDS011;1937;51.444;6.484;2024-03-08T00:27:08;35.70;;;17.70;;
3843;SDS011;1937;51.444;6.484;2024-03-08T00:29:38;22.50;;;13.60;;
3843;SDS011;1937;51.444;6.484;2024-03-08T00:32:05;28.70;;;16.10;;
3843;SDS011;1937;51.444;6.484;2024-03-08T00:34:32;34.30;;;16.87;;
3843;SDS011;1937;51.444;6.484;2024-03-08T00:37:01;26.37;;;15.37;;
3843;SDS011;1937;51.444;6.484;2024-03-08T00:39:28;26.73;;;14.83;;
3843;SDS011;1937;51.444;6.484;2024-03-08T00:41:54;28.30;;;16.60;;
3843;SDS011;1937;51.444;6.484;2024-03-08T00:44:21;33.60;;;14.80;;
3843;SDS011;1937;51.444;6.484;2024-03-08T00:46:49;27.70;;;16.27;;
3843;SDS011;1937;51.444;6.484;2024-03-08T00:49:16;28.03;;;17.07;;
3843;SDS011;1937;51.444;6.484;2024-03-08T00:51:43;34.43;;;17.30;;
3843;SDS011;1937;51.444;6.484;2024-03-08T00:54:09;28.43;;;16.87;;
3843;SDS011;1937;51.444;6.484;2024-03-08T00:56:36;36.03;;;18.67;;
3843;SDS011;1937;51.444;6.484;2024-03-08T00:59:04;29.63;;;16.33;;
3843;SDS011;1937;51.444;6.484;2024-03-08T01:01:31;24.80;;;15.70;;
3843;SDS011;1937;51.444;6.484;2024-03-08T01:03:59;31.67;;;16.70;;
3843;SDS011;1937;51.444;6.484;2024-03-08T01:06:26;31.40;;;18.27;;
3843;SDS011;1937;51.444;6.484;2024-03-08T01:08:53;35.80;;;17.80;;
3843;SDS011;1937;51.444;6.484;2024-03-08T01:11:19;30.07;;;15.77;;
3843;SDS011;1937;51.444;6.484;2024-03-08T01:13:46;28.67;;;16.20;;
3843;SDS011;1937;51.444;6.484;2024-03-08T01:16:15;25.57;;;16.23;;
3843;SDS011;1937;51.444;6.484;2024-03-08T01:18:43;38.07;;;18.47;;
3843;SDS011;1937;51.444;6.484;2024-03-08T01:21:11;35.37;;;18.13;;
3843;SDS011;1937;51.444;6.484;2024-03-08T01:23:38;26.20;;;15.83;;
3843;SDS011;1937;51.444;6.484;2024-03-08T01:26:04;26.73;;;16.73;;
3843;SDS011;1937;51.444;6.484;2024-03-08T01:28:31;34.53;;;17.97;;
3843;SDS011;1937;51.444;6.484;2024-03-08T01:30:59;27.57;;;17.10;;
3843;SDS011;1937;51.444;6.484;2024-03-08T01:33:26;34.87;;;17.17;;
3843;SDS011;1937;51.444;6.484;2024-03-08T01:35:53;28.30;;;16.17;;
3843;SDS011;1937;51.444;6.484;2024-03-08T01:38:21;43.03;;;16.60;;
3843;SDS011;1937;51.444;6.484;2024-03-08T01:40:48;35.20;;;17.00;;
3843;SDS011;1937;51.444;6.484;2024-03-08T01:43:19;26.30;;;16.77;;
3843;SDS011;1937;51.444;6.484;2024-03-08T01:45:48;33.50;;;18.30;;
3843;SDS011;1937;51.444;6.484;2024-03-08T01:48:15;38.73;;;18.10;;
3843;SDS011;1937;51.444;6.484;2024-03-08T01:50:44;31.37;;;17.73;;
3843;SDS011;1937;51.444;6.484;2024-03-08T01:53:11;37.37;;;18.90;;
3843;SDS011;1937;51.444;6.484;2024-03-08T01:55:41;29.23;;;16.40;;
3843;SDS011;1937;51.444;6.484;2024-03-08T01:58:09;34.27;;;17.23;;
3843;SDS011;1937;51.444;6.484;2024-03-08T02:00:36;38.50;;;19.97;;
3843;SDS011;1937;51.444;6.484;2024-03-08T02:03:06;30.70;;;18.70;;
3843;SDS011;1937;51.444;6.484;2024-03-08T02:05:33;38.03;;;18.93;;
3843;SDS011;1937;51.444;6.484;2024-03-08T02:08:00;39.17;;;19.17;;
3843;SDS011;1937;51.444;6.484;2024-03-08T02:10:27;35.37;;;18.27;;
3843;SDS011;1937;51.444;6.484;2024-03-08T02:12:56;35.13;;;18.00;;
3843;SDS011;1937;51.444;6.484;2024-03-08T02:15:23;30.43;;;18.97;;
3843;SDS011;1937;51.444;6.484;2024-03-08T02:17:51;32.07;;;17.10;;
3843;SDS011;1937;51.444;6.484;2024-03-08T02:20:18;35.40;;;17.90;;
3843;SDS011;1937;51.444;6.484;2024-03-08T02:22:48;26.47;;;16.63;;
3843;SDS011;1937;51.444;6.484;2024-03-08T02:25:15;32.63;;;18.60;;
3843;SDS011;1937;51.444;6.484;2024-03-08T02:27:42;36.53;;;21.10;;
3843;SDS011;1937;51.444;6.484;2024-03-08T02:30:09;31.60;;;18.20;;
3843;SDS011;1937;51.444;6.484;2024-03-08T02:32:37;32.93;;;18.40;;
3843;SDS011;1937;51.444;6.484;2024-03-08T02:35:04;33.90;;;19.20;;
3843;SDS011;1937;51.444;6.484;2024-03-08T02:37:31;29.20;;;16.53;;
3843;SDS011;1937;51.444;6.484;2024-03-08T02:39:59;31.60;;;18.00;;
3843;SDS011;1937;51.444;6.484;2024-03-08T02:42:26;32.10;;;18.90;;
3843;SDS011;1937;51.444;6.484;2024-03-08T02:44:52;37.40;;;18.40;;
3843;SDS011;1937;51.444;6.484;2024-03-08T02:47:19;45.77;;;18.60;;
3843;SDS011;1937;51.444;6.484;2024-03-08T02:49:46;33.40;;;18.67;;
3843;SDS011;1937;51.444;6.484;2024-03-08T02:52:13;40.07;;;20.47;;
3843;SDS011;1937;51.444;6.484;2024-03-08T02:54:41;37.20;;;18.27;;
3843;SDS011;1937;51.444;6.484;2024-03-08T02:57:10;34.27;;;19.20;;
3843;SDS011;1937;51.444;6.484;2024-03-08T02:59:37;34.60;;;18.63;;
3843;SDS011;1937;51.444;6.484;2024-03-08T03:02:05;34.47;;;18.87;;
3843;SDS011;1937;51.444;6.484;2024-03-08T03:04:32;39.47;;;21.40;;
3843;SDS011;1937;51.444;6.484;2024-03-08T03:06:59;40.50;;;21.40;;
3843;SDS011;1937;51.444;6.484;2024-03-08T03:09:26;29.37;;;17.80;;
3843;SDS011;1937;51.444;6.484;2024-03-08T03:11:53;33.80;;;19.40;;
3843;SDS011;1937;51.444;6.484;2024-03-08T03:14:22;36.00;;;19.40;;
3843;SDS011;1937;51.444;6.484;2024-03-08T03:16:49;32.17;;;19.83;;
3843;SDS011;1937;51.444;6.484;2024-03-08T03:19:16;37.77;;;17.80;;
3843;SDS011;1937;51.444;6.484;2024-03-08T03:21:43;41.27;;;19.63;;
3843;SDS011;1937;51.444;6.484;2024-03-08T03:24:12;37.83;;;20.20;;
3843;SDS011;1937;51.444;6.484;2024-03-08T03:26:41;36.53;;;18.93;;
3843;SDS011;1937;51.444;6.484;2024-03-08T03:29:08;38.30;;;18.87;;
3843;SDS011;1937;51.444;6.484;2024-03-08T03:31:37;40.30;;;20.43;;
3843;SDS011;1937;51.444;6.484;2024-03-08T03:34:05;33.40;;;19.00;;
3843;SDS011;1937;51.444;6.484;2024-03-08T03:36:33;38.47;;;20.80;;
3843;SDS011;1937;51.444;6.484;2024-03-08T03:39:03;34.00;;;19.50;;
3843;SDS011;1937;51.444;6.484;2024-03-08T03:41:35;35.60;;;17.80;;
3843;SDS011;1937;51.444;6.484;2024-03-08T03:44:03;32.57;;;20.10;;
3843;SDS011;1937;51.444;6.484;2024-03-08T03:46:31;34.70;;;19.03;;
3843;SDS011;1937;51.444;6.484;2024-03-08T03:48:59;38.20;;;19.70;;
3843;SDS011;1937;51.444;6.484;2024-03-08T03:51:26;35.00;;;19.17;;
3843;SDS011;1937;51.444;6.484;2024-03-08T03:53:54;35.00;;;18.97;;
3843;SDS011;1937;51.444;6.484;2024-03-08T03:56:24;37.57;;;19.40;;
3843;SDS011;1937;51.444;6.484;2024-03-08T03:58:51;34.13;;;19.73;;
3843;SDS011;1937;51.444;6.484;2024-03-08T04:01:18;34.07;;;20.10;;
3843;SDS011;1937;51.444;6.484;2024-03-08T04:03:45;35.50;;;18.97;;
3843;SDS011;1937;51.444;6.484;2024-03-08T04:06:14;41.20;;;20.17;;
3843;SDS011;1937;51.444;6.484;2024-03-08T04:08:40;35.47;;;17.97;;
3843;SDS011;1937;51.444;6.484;2024-03-08T04:11:07;35.03;;;19.57;;
3843;SDS011;1937;51.444;6.484;2024-03-08T04:13:34;44.10;;;19.57;;
3843;SDS011;1937;51.444;6.484;2024-03-08T04:16:01;33.30;;;18.80;;
3843;SDS011;1937;51.444;6.484;2024-03-08T04:18:33;36.20;;;19.90;;
3843;SDS011;1937;51.444;6.484;2024-03-08T04:21:00;34.97;;;20.50;;
3843;SDS011;1937;51.444;6.484;2024-03-08T04:23:29;41.20;;;19.70;;
3843;SDS011;1937;51.444;6.484;2024-03-08T04:25:55;45.97;;;20.90;;
3843;SDS011;1937;51.444;6.484;2024-03-08T04:28:22;35.43;;;20.23;;
3843;SDS011;1937;51.444;6.484;2024-03-08T04:30:50;33.33;;;18.83;;
3843;SDS011;1937;51.444;6.484;2024-03-08T04:33:17;36.60;;;20.43;;
3843;SDS011;1937;51.444;6.484;2024-03-08T04:35:43;39.03;;;19.37;;
3843;SDS011;1937;51.444;6.484;2024-03-08T04:38:11;33.97;;;18.00;;
3843;SDS011;1937;51.444;6.484;2024-03-08T04:40:39;33.30;;;18.00;;
3843;SDS011;1937;51.444;6.484;2024-03-08T04:43:06;36.00;;;18.20;;
3843;SDS011;1937;51.444;6.484;2024-03-08T04:45:33;37.03;;;19.13;;
3843;SDS011;1937;51.444;6.484;2024-03-08T04:48:00;35.10;;;18.33;;
3843;SDS011;1937;51.444;6.484;2024-03-08T04:50:27;41.03;;;20.67;;
3843;SDS011;1937;51.444;6.484;2024-03-08T04:52:54;38.37;;;20.33;;
3843;SDS011;1937;51.444;6.484;2024-03-08T04:55:21;34.40;;;18.80;;
3843;SDS011;1937;51.444;6.484;2024-03-08T04:57:49;38.43;;;18.13;;
3843;SDS011;1937;51.444;6.484;2024-03-08T05:00:16;45.20;;;19.40;;
3843;SDS011;1937;51.444;6.484;2024-03-08T05:02:43;36.57;;;19.67;;
3843;SDS011;1937;51.444;6.484;2024-03-08T05:05:10;33.77;;;17.97;;
3843;SDS011;1937;51.444;6.484;2024-03-08T05:07:38;34.37;;;18.77;;
3843;SDS011;1937;51.444;6.484;2024-03-08T05:10:05;31.87;;;19.60;;
3843;SDS011;1937;51.444;6.484;2024-03-08T05:12:34;40.13;;;18.20;;
3843;SDS011;1937;51.444;6.484;2024-03-08T05:15:02;32.97;;;18.53;;
3843;SDS011;1937;51.444;6.484;2024-03-08T05:17:30;42.77;;;20.63;;
3843;SDS011;1937;51.444;6.484;2024-03-08T05:19:56;39.43;;;18.20;;
3843;SDS011;1937;51.444;6.484;2024-03-08T05:22:23;33.23;;;18.47;;
3843;SDS011;1937;51.444;6.484;2024-03-08T05:24:51;36.93;;;19.20;;
3843;SDS011;1937;51.444;6.484;2024-03-08T05:27:18;36.67;;;20.10;;
3843;SDS011;1937;51.444;6.484;2024-03-08T05:29:44;42.10;;;19.57;;
3843;SDS011;1937;51.444;6.484;2024-03-08T05:32:12;35.97;;;18.50;;
3843;SDS011;1937;51.444;6.484;2024-03-08T05:34:39;37.73;;;19.87;;
3843;SDS011;1937;51.444;6.484;2024-03-08T05:37:06;38.27;;;19.23;;
3843;SDS011;1937;51.444;6.484;2024-03-08T05:39:32;39.03;;;19.90;;
3843;SDS011;1937;51.444;6.484;2024-03-08T05:41:59;32.07;;;18.27;;
3843;SDS011;1937;51.444;6.484;2024-03-08T05:44:26;48.70;;;19.67;;
3843;SDS011;1937;51.444;6.484;2024-03-08T05:46:53;41.87;;;20.10;;
3843;SDS011;1937;51.444;6.484;2024-03-08T05:49:22;35.90;;;19.33;;
3843;SDS011;1937;51.444;6.484;2024-03-08T05:51:50;40.53;;;21.60;;
3843;SDS011;1937;51.444;6.484;2024-03-08T05:54:17;38.97;;;19.50;;
3843;SDS011;1937;51.444;6.484;2024-03-08T05:56:43;42.40;;;20.40;;
3843;SDS011;1937;51.444;6.484;2024-03-08T05:59:10;36.27;;;20.07;;
3843;SDS011;1937;51.444;6.484;2024-03-08T06:01:37;38.43;;;20.77;;
3843;SDS011;1937;51.444;6.484;2024-03-08T06:04:06;45.13;;;23.53;;
3843;SDS011;1937;51.444;6.484;2024-03-08T06:06:34;45.40;;;20.50;;
3843;SDS011;1937;51.444;6.484;2024-03-08T06:09:02;39.77;;;19.53;;
3843;SDS011;1937;51.444;6.484;2024-03-08T06:11:34;40.83;;;20.10;;
3843;SDS011;1937;51.444;6.484;2024-03-08T06:14:02;41.97;;;20.90;;
3843;SDS011;1937;51.444;6.484;2024-03-08T06:16:29;45.93;;;23.20;;
3843;SDS011;1937;51.444;6.484;2024-03-08T06:18:56;41.40;;;19.63;;
3843;SDS011;1937;51.444;6.484;2024-03-08T06:21:23;43.50;;;21.60;;
3843;SDS011;1937;51.444;6.484;2024-03-08T06:23:53;39.80;;;22.13;;
3843;SDS011;1937;51.444;6.484;2024-03-08T06:26:22;34.03;;;18.97;;
3843;SDS011;1937;51.444;6.484;2024-03-08T06:28:49;39.73;;;20.03;;
3843;SDS011;1937;51.444;6.484;2024-03-08T06:31:17;43.20;;;20.40;;
3843;SDS011;1937;51.444;6.484;2024-03-08T06:33:45;46.40;;;24.17;;
3843;SDS011;1937;51.444;6.484;2024-03-08T06:36:11;40.00;;;19.87;;
3843;SDS011;1937;51.444;6.484;2024-03-08T06:38:38;42.20;;;21.43;;
3843;SDS011;1937;51.444;6.484;2024-03-08T06:41:09;41.80;;;20.90;;
3843;SDS011;1937;51.444;6.484;2024-03-08T06:43:40;47.90;;;21.97;;
3843;SDS011;1937;51.444;6.484;2024-03-08T06:46:07;45.43;;;21.13;;
3843;SDS011;1937;51.444;6.484;2024-03-08T06:48:34;42.50;;;22.53;;
3843;SDS011;1937;51.444;6.484;2024-03-08T06:51:02;42.60;;;22.73;;
3843;SDS011;1937;51.444;6.484;2024-03-08T06:53:30;41.60;;;20.70;;
3843;SDS011;1937;51.444;6.484;2024-03-08T06:55:57;53.10;;;23.80;;
3843;SDS011;1937;51.444;6.484;2024-03-08T06:58:25;43.27;;;20.23;;
3843;SDS011;1937;51.444;6.484;2024-03-08T07:00:52;41.77;;;21.60;;
3843;SDS011;1937;51.444;6.484;2024-03-08T07:03:23;41.57;;;22.53;;
3843;SDS011;1937;51.444;6.484;2024-03-08T07:05:51;40.90;;;20.70;;
3843;SDS011;1937;51.444;6.484;2024-03-08T07:08:18;44.90;;;20.47;;
3843;SDS011;1937;51.444;6.484;2024-03-08T07:10:47;42.03;;;21.37;;
3843;SDS011;1937;51.444;6.484;2024-03-08T07:13:14;44.30;;;21.70;;
3843;SDS011;1937;51.444;6.484;2024-03-08T07:15:43;36.97;;;20.20;;
3843;SDS011;1937;51.444;6.484;2024-03-08T07:18:10;43.07;;;21.60;;
3843;SDS011;1937;51.444;6.484;2024-03-08T07:20:39;41.60;;;20.37;;
3843;SDS011;1937;51.444;6.484;2024-03-08T07:23:07;41.73;;;20.53;;
3843;SDS011;1937;51.444;6.484;2024-03-08T07:25:35;41.00;;;20.33;;
3843;SDS011;1937;51.444;6.484;2024-03-08T07:28:04;42.20;;;21.03;;
3843;SDS011;1937;51.444;6.484;2024-03-08T07:30:31;41.93;;;20.07;;
3843;SDS011;1937;51.444;6.484;2024-03-08T07:33:16;37.90;;;19.90;;
3843;SDS011;1937;51.444;6.484;2024-03-08T07:35:43;41.20;;;22.97;;
3843;SDS011;1937;51.444;6.484;2024-03-08T07:38:11;40.20;;;21.80;;
3843;SDS011;1937;51.444;6.484;2024-03-08T07:40:40;45.13;;;21.50;;
3843;SDS011;1937;51.444;6.484;2024-03-08T07:43:09;35.27;;;20.90;;
3843;SDS011;1937;51.444;6.484;2024-03-08T07:45:36;37.47;;;18.80;;
3843;SDS011;1937;51.444;6.484;2024-03-08T07:48:04;43.17;;;21.27;;
3843;SDS011;1937;51.444;6.484;2024-03-08T07:50:36;37.60;;;19.10;;
3843;SDS011;1937;51.444;6.484;2024-03-08T07:53:03;36.80;;;20.17;;
3843;SDS011;1937;51.444;6.484;2024-03-08T07:55:31;41.20;;;20.87;;
3843;SDS011;1937;51.444;6.484;2024-03-08T07:57:58;45.53;;;20.70;;
3843;SDS011;1937;51.444;6.484;2024-03-08T08:00:24;48.87;;;21.90;;
3843;SDS011;1937;51.444;6.484;2024-03-08T08:02:52;39.40;;;19.67;;
3843;SDS011;1937;51.444;6.484;2024-03-08T08:05:19;38.33;;;20.53;;
3843;SDS011;1937;51.444;6.484;2024-03-08T08:07:47;44.60;;;22.17;;
3843;SDS011;1937;51.444;6.484;2024-03-08T08:10:15;43.67;;;20.63;;
3843;SDS011;1937;51.444;6.484;2024-03-08T08:12:43;44.63;;;21.33;;
3843;SDS011;1937;51.444;6.484;2024-03-08T08:15:11;44.23;;;20.67;;
3843;SDS011;1937;51.444;6.484;2024-03-08T08:17:40;33.77;;;18.77;;
3843;SDS011;1937;51.444;6.484;2024-03-08T08:20:07;34.67;;;20.90;;
3843;SDS011;1937;51.444;6.484;2024-03-08T08:22:36;40.97;;;20.70;;
3843;SDS011;1937;51.444;6.484;2024-03-08T08:25:06;30.53;;;18.30;;
3843;SDS011;1937;51.444;6.484;2024-03-08T08:27:33;38.13;;;19.10;;
3843;SDS011;1937;51.444;6.484;2024-03-08T08:30:01;38.97;;;19.70;;
3843;SDS011;1937;51.444;6.484;2024-03-08T08:32:33;33.80;;;19.10;;
3843;SDS011;1937;51.444;6.484;2024-03-08T08:35:00;33.57;;;19.10;;
3843;SDS011;1937;51.444;6.484;2024-03-08T08:37:27;34.10;;;18.87;;
3843;SDS011;1937;51.444;6.484;2024-03-08T08:39:55;32.00;;;16.80;;
3843;SDS011;1937;51.444;6.484;2024-03-08T08:42:23;36.27;;;18.43;;
3843;SDS011;1937;51.444;6.484;2024-03-08T08:44:50;34.50;;;18.30;;
3843;SDS011;1937;51.444;6.484;2024-03-08T08:47:17;33.90;;;19.13;;
3843;SDS011;1937;51.444;6.484;2024-03-08T08:49:44;31.53;;;17.07;;
3843;SDS011;1937;51.444;6.484;2024-03-08T08:52:12;28.27;;;16.20;;
3843;SDS011;1937;51.444;6.484;2024-03-08T08:54:40;32.90;;;18.40;;
3843;SDS011;1937;51.444;6.484;2024-03-08T08:57:07;30.47;;;18.60;;
3843;SDS011;1937;51.444;6.484;2024-03-08T08:59:35;33.53;;;18.40;;
3843;SDS011;1937;51.444;6.484;2024-03-08T09:02:04;29.83;;;18.60;;
3843;SDS011;1937;51.444;6.484;2024-03-08T09:04:31;27.90;;;17.30;;
3843;SDS011;1937;51.444;6.484;2024-03-08T09:06:58;31.63;;;17.53;;
3843;SDS011;1937;51.444;6.484;2024-03-08T09:09:26;32.43;;;17.83;;
3843;SDS011;1937;51.444;6.484;2024-03-08T09:11:54;27.77;;;16.63;;
3843;SDS011;1937;51.444;6.484;2024-03-08T09:14:21;30.70;;;17.20;;
3843;SDS011;1937;51.444;6.484;2024-03-08T09:16:49;28.73;;;17.40;;
3843;SDS011;1937;51.444;6.484;2024-03-08T09:25:14;27.07;;;16.20;;
3843;SDS011;1937;51.444;6.484;2024-03-08T09:27:41;25.27;;;14.67;;
3843;SDS011;1937;51.444;6.484;2024-03-08T09:30:08;33.03;;;16.40;;
3843;SDS011;1937;51.444;6.484;2024-03-08T09:32:39;26.60;;;15.90;;
3843;SDS011;1937;51.444;6.484;2024-03-08T09:35:06;26.10;;;16.07;;
3843;SDS011;1937;51.444;6.484;2024-03-08T09:37:33;27.00;;;15.20;;
3843;SDS011;1937;51.444;6.484;2024-03-08T09:40:00;28.13;;;16.30;;
3843;SDS011;1937;51.444;6.484;2024-03-08T09:42:29;32.23;;;16.70;;
3843;SDS011;1937;51.444;6.484;2024-03-08T09:44:57;30.33;;;15.93;;
3843;SDS011;1937;51.444;6.484;2024-03-08T09:47:23;25.27;;;16.07;;
3843;SDS011;1937;51.444;6.484;2024-03-08T09:50:00;27.50;;;17.70;;
3843;SDS011;1937;51.444;6.484;2024-03-08T09:52:27;24.30;;;15.80;;
3843;SDS011;1937;51.444;6.484;2024-03-08T09:54:56;27.37;;;16.67;;
3843;SDS011;1937;51.444;6.484;2024-03-08T09:57:23;25.40;;;15.80;;
3843;SDS011;1937;51.444;6.484;2024-03-08T09:59:51;24.57;;;15.53;;
3843;SDS011;1937;51.444;6.484;2024-03-08T10:02:18;27.00;;;16.43;;
3843;SDS011;1937;51.444;6.484;2024-03-08T10:04:46;26.67;;;13.90;;
3843;SDS011;1937;51.444;6.484;2024-03-08T10:07:14;21.20;;;13.93;;
3843;SDS011;1937;51.444;6.484;2024-03-08T10:09:41;24.50;;;15.53;;
3843;SDS011;1937;51.444;6.484;2024-03-08T10:12:12;28.63;;;17.70;;
3843;SDS011;1937;51.444;6.484;2024-03-08T10:14:39;29.93;;;16.93;;
3843;SDS011;1937;51.444;6.484;2024-03-08T10:17:07;31.67;;;17.50;;
3843;SDS011;1937;51.444;6.484;2024-03-08T10:19:34;29.40;;;17.27;;
3843;SDS011;1937;51.444;6.484;2024-03-08T10:22:01;25.07;;;15.30;;
3843;SDS011;1937;51.444;6.484;2024-03-08T10:24:31;29.13;;;16.70;;
3843;SDS011;1937;51.444;6.484;2024-03-08T10:26:59;28.83;;;16.87;;
3843;SDS011;1937;51.444;6.484;2024-03-08T10:29:29;26.70;;;17.23;;
3843;SDS011;1937;51.444;6.484;2024-03-08T10:32:03;25.67;;;16.07;;
3843;SDS011;1937;51.444;6.484;2024-03-08T10:34:32;30.63;;;16.20;;
3843;SDS011;1937;51.444;6.484;2024-03-08T10:37:00;31.23;;;17.63;;
3843;SDS011;1937;51.444;6.484;2024-03-08T10:39:34;27.47;;;15.57;;
3843;SDS011;1937;51.444;6.484;2024-03-08T10:42:02;35.37;;;17.43;;
3843;SDS011;1937;51.444;6.484;2024-03-08T10:47:23;30.20;;;16.90;;
3843;SDS011;1937;51.444;6.484;2024-03-08T10:49:55;30.60;;;17.17;;
3843;SDS011;1937;51.444;6.484;2024-03-08T10:52:30;28.17;;;16.13;;
3843;SDS011;1937;51.444;6.484;2024-03-08T10:55:07;32.33;;;16.70;;
3843;SDS011;1937;51.444;6.484;2024-03-08T10:57:44;33.17;;;16.40;;
3843;SDS011;1937;51.444;6.484;2024-03-08T11:00:41;31.80;;;17.03;;
3843;SDS011;1937;51.444;6.484;2024-03-08T11:03:14;24.10;;;14.97;;
3843;SDS011;1937;51.444;6.484;2024-03-08T11:06:15;20.37;;;12.70;;
3843;SDS011;1937;51.444;6.484;2024-03-08T11:08:43;25.60;;;15.23;;
